Time;durP1;ratioP1;P1;durP2;ratioP2;P2;SDS_P1;SDS_P2;PMS_P1;PMS_P2;Temp;Humidity;BMP_temperature;BMP_pressure;BME280_temperature;BME280_humidity;BME280_pressure;Samples;Min_cycle;Max_cycle;Signal;HPM_P1;HPM_P2
2023/01/25 00:00:24;;;;;;;8.77;6.72;;;5.20;99.90;;;;;;5046584;29;20021;-75
2023/01/25 00:02:54;;;;;;;7.57;5.80;;;5.00;99.90;;;;;;5046912;29;20389;-76
2023/01/25 00:05:25;;;;;;;7.65;5.50;;;5.30;99.90;;;;;;5046678;29;20033;-76
2023/01/25 00:07:56;;;;;;;12.43;8.75;;;5.10;99.90;;;;;;5046746;29;20029;-76
2023/01/25 00:10:27;;;;;;;6.88;5.22;;;4.90;99.90;;;;;;5046888;29;20072;-76
2023/01/25 00:12:58;;;;;;;8.57;6.68;;;5.20;99.90;;;;;;5046645;29;20037;-74
2023/01/25 00:15:29;;;;;;;12.00;6.80;;;5.00;99.90;;;;;;5046735;29;20040;-76
2023/01/25 00:18:00;;;;;;;11.15;6.55;;;5.20;99.90;;;;;;5046636;29;20037;-75
2023/01/25 00:20:31;;;;;;;9.82;5.72;;;5.10;99.90;;;;;;5060982;29;20477;-76
2023/01/25 00:23:02;;;;;;;5.55;5.05;;;5.20;99.90;;;;;;5046641;29;20044;-71
2023/01/25 00:25:32;;;;;;;8.05;6.53;;;5.20;99.90;;;;;;5046592;29;20033;-75
2023/01/25 00:28:03;;;;;;;13.63;5.72;;;5.00;99.90;;;;;;5046456;29;20029;-74
2023/01/25 00:30:34;;;;;;;6.82;5.55;;;5.30;99.90;;;;;;5046534;29;20040;-75
2023/01/25 00:33:33;;;;;;;5.10;4.60;;;5.20;99.90;;;;;;5046866;29;20029;-76
2023/01/25 00:36:38;;;;;;;7.90;5.47;;;5.20;99.90;;;;;;5041830;29;20052;-75
2023/01/25 00:39:12;;;;;;;8.02;5.50;;;5.40;99.90;;;;;;5046566;29;20041;-73
2023/01/25 00:41:43;;;;;;;9.30;6.40;;;5.50;99.90;;;;;;5052007;29;20449;-73
2023/01/25 00:44:14;;;;;;;7.75;5.45;;;5.40;99.90;;;;;;5064720;29;20093;-74
2023/01/25 00:46:46;;;;;;;8.68;5.97;;;5.10;99.90;;;;;;5064655;29;20458;-76
2023/01/25 00:49:25;;;;;;;7.82;5.93;;;5.10;99.90;;;;;;5065354;29;20056;-72
2023/01/25 00:51:56;;;;;;;11.18;5.65;;;5.50;99.90;;;;;;5066004;29;20484;-75
2023/01/25 00:54:27;;;;;;;6.97;5.70;;;5.20;99.90;;;;;;5065783;29;20047;-71
2023/01/25 00:56:58;;;;;;;8.07;5.88;;;5.40;99.90;;;;;;5065529;29;20021;-71
2023/01/25 00:59:29;;;;;;;12.50;5.05;;;5.10;99.90;;;;;;5065800;29;20060;-74
2023/01/25 01:02:00;;;;;;;8.45;5.57;;;5.40;99.90;;;;;;5065811;29;20485;-76
2023/01/25 01:04:31;;;;;;;10.73;6.78;;;5.30;99.90;;;;;;5065666;29;20092;-76
2023/01/25 01:07:02;;;;;;;6.95;6.20;;;5.20;99.90;;;;;;5065639;29;20373;-76
2023/01/25 01:09:33;;;;;;;7.13;6.20;;;5.10;99.90;;;;;;5065487;29;20127;-76
2023/01/25 01:12:04;;;;;;;8.98;5.47;;;5.10;99.90;;;;;;5066291;29;20029;-75
2023/01/25 01:14:35;;;;;;;7.28;5.47;;;5.30;99.90;;;;;;5069087;29;20178;-76
2023/01/25 01:17:06;;;;;;;7.40;5.45;;;5.60;99.90;;;;;;5069190;29;20056;-76
2023/01/25 01:19:37;;;;;;;7.68;5.82;;;5.30;99.90;;;;;;5067526;29;20044;-76
2023/01/25 01:22:07;;;;;;;8.07;5.95;;;5.30;99.90;;;;;;5067730;29;20035;-75
2023/01/25 01:24:38;;;;;;;6.97;6.25;;;5.40;99.90;;;;;;5068830;29;20092;-76
2023/01/25 01:27:09;;;;;;;9.20;5.90;;;5.10;99.90;;;;;;5069098;29;20039;-76
2023/01/25 01:29:40;;;;;;;6.18;5.28;;;5.20;99.90;;;;;;5068692;29;20127;-72
2023/01/25 01:32:11;;;;;;;7.70;5.38;;;5.10;99.90;;;;;;5068670;29;20063;-76
2023/01/25 01:34:43;;;;;;;6.80;4.85;;;5.40;99.90;;;;;;5068588;29;20037;-76
2023/01/25 01:37:14;;;;;;;9.70;6.05;;;5.40;99.90;;;;;;5068773;29;20459;-75
2023/01/25 01:39:44;;;;;;;6.93;4.68;;;5.50;99.90;;;;;;5068687;29;20029;-76
2023/01/25 01:42:15;;;;;;;8.07;5.25;;;5.30;99.90;;;;;;5068505;29;20029;-76
2023/01/25 01:44:52;;;;;;;6.10;4.85;;;5.30;99.90;;;;;;5068574;29;20028;-76
2023/01/25 01:47:38;;;;;;;9.13;6.22;;;5.50;99.90;;;;;;5067186;29;20029;-76
2023/01/25 01:50:20;;;;;;;8.07;5.32;;;5.40;99.90;;;;;;5068133;29;20496;-75
2023/01/25 01:52:51;;;;;;;6.05;5.13;;;5.00;99.90;;;;;;5068395;29;20035;-73
2023/01/25 01:55:23;;;;;;;5.07;4.53;;;5.30;99.90;;;;;;5068243;29;20410;-76
2023/01/25 01:57:58;;;;;;;7.47;5.80;;;5.00;99.90;;;;;;5068661;29;20028;-75
2023/01/25 02:00:33;;;;;;;7.22;5.95;;;5.20;99.90;;;;;;5068503;29;20024;-76
2023/01/25 02:03:04;;;;;;;6.78;6.13;;;4.90;99.90;;;;;;5068338;29;20041;-76
2023/01/25 02:05:55;;;;;;;7.13;5.28;;;5.10;99.90;;;;;;5068250;29;20096;-75
2023/01/25 02:08:31;;;;;;;7.72;6.40;;;5.10;99.90;;;;;;5068091;29;20033;-76
2023/01/25 02:11:03;;;;;;;9.60;5.20;;;5.30;99.90;;;;;;5067991;29;20481;-76
2023/01/25 02:13:45;;;;;;;9.57;5.20;;;5.00;99.90;;;;;;5066773;29;20488;-76
2023/01/25 02:16:25;;;;;;;8.88;5.22;;;4.80;99.90;;;;;;5068123;29;20041;-77
2023/01/25 02:19:02;;;;;;;7.18;6.50;;;4.70;99.90;;;;;;5067744;29;20025;-77
2023/01/25 02:21:47;;;;;;;7.40;5.80;;;5.00;99.90;;;;;;5067909;29;20154;-77
2023/01/25 02:24:29;;;;;;;7.40;6.03;;;4.80;99.90;;;;;;5067690;29;20028;-75
2023/01/25 02:27:00;;;;;;;7.53;6.70;;;5.00;99.90;;;;;;5067750;29;20422;-76
2023/01/25 02:29:32;;;;;;;6.35;5.63;;;4.80;99.90;;;;;;5066359;29;20067;-77
2023/01/25 02:32:05;;;;;;;5.82;5.05;;;4.80;99.90;;;;;;5067542;29;20064;-73
2023/01/25 02:34:35;;;;;;;7.45;5.15;;;4.90;99.90;;;;;;5067573;29;20036;-76
2023/01/25 02:37:12;;;;;;;11.48;5.38;;;5.00;99.90;;;;;;5060349;29;20025;-76
2023/01/25 02:39:43;;;;;;;6.80;5.32;;;4.90;99.90;;;;;;5048093;29;20442;-75
2023/01/25 02:42:14;;;;;;;5.18;4.60;;;5.10;99.90;;;;;;5048017;29;20029;-76
2023/01/25 02:44:46;;;;;;;9.98;5.22;;;5.00;99.90;;;;;;5047971;29;20161;-76
2023/01/25 02:47:17;;;;;;;9.27;5.75;;;5.10;99.90;;;;;;5048023;29;20025;-74
2023/01/25 02:49:47;;;;;;;10.40;5.18;;;4.70;99.90;;;;;;5047824;29;20080;-72
2023/01/25 02:52:18;;;;;;;10.18;5.13;;;4.90;99.90;;;;;;5048233;29;20837;-77
2023/01/25 02:54:49;;;;;;;6.25;4.95;;;4.50;99.90;;;;;;5046742;29;20041;-76
2023/01/25 02:57:20;;;;;;;7.78;5.10;;;4.90;99.90;;;;;;5046683;29;20072;-74
2023/01/25 02:59:51;;;;;;;7.68;5.28;;;5.00;99.90;;;;;;5046731;29;20151;-76
2023/01/25 03:02:22;;;;;;;5.85;5.32;;;4.80;99.90;;;;;;5047721;29;20169;-76
2023/01/25 03:04:53;;;;;;;5.75;5.18;;;4.60;99.90;;;;;;5047665;29;20103;-77
2023/01/25 03:07:24;;;;;;;7.25;6.13;;;4.70;99.90;;;;;;5047812;29;20041;-73
2023/01/25 03:09:54;;;;;;;7.40;6.43;;;4.50;99.90;;;;;;5047748;29;20041;-76
2023/01/25 03:12:25;;;;;;;10.00;6.18;;;4.90;99.90;;;;;;5047607;29;20039;-75
2023/01/25 03:14:56;;;;;;;6.05;5.13;;;4.60;99.90;;;;;;5047633;29;20037;-76
2023/01/25 03:17:27;;;;;;;6.32;5.28;;;4.90;99.90;;;;;;5047528;29;20382;-72
2023/01/25 03:19:58;;;;;;;5.85;5.25;;;4.60;99.90;;;;;;5518409;23;20057;-76
2023/01/25 03:22:28;;;;;;;5.53;5.10;;;4.40;99.90;;;;;;5047482;29;20040;-76
2023/01/25 03:24:59;;;;;;;7.03;6.30;;;4.60;99.90;;;;;;5047200;29;20052;-74
2023/01/25 03:27:30;;;;;;;5.78;4.82;;;4.20;99.90;;;;;;5047449;29;20025;-75
2023/01/25 03:30:01;;;;;;;7.28;6.13;;;4.60;99.90;;;;;;5045945;29;20037;-76
2023/01/25 03:32:32;;;;;;;9.43;5.75;;;4.50;99.90;;;;;;5047313;29;20154;-76
2023/01/25 03:35:04;;;;;;;8.25;6.03;;;4.40;99.90;;;;;;5046720;29;20107;-76
2023/01/25 03:37:35;;;;;;;7.05;5.80;;;4.40;99.90;;;;;;5047134;29;20489;-76
2023/01/25 03:40:06;;;;;;;10.93;6.57;;;4.30;99.90;;;;;;5047214;29;20029;-75
2023/01/25 03:42:37;;;;;;;8.35;5.72;;;4.20;99.90;;;;;;5047162;29;20025;-75
2023/01/25 03:45:08;;;;;;;7.18;6.07;;;4.40;99.90;;;;;;5046909;29;20025;-75
2023/01/25 03:47:40;;;;;;;8.15;6.40;;;4.40;99.90;;;;;;5045840;29;20033;-74
2023/01/25 03:50:11;;;;;;;7.57;5.78;;;4.40;99.90;;;;;;5046703;29;20045;-76
2023/01/25 03:52:44;;;;;;;8.07;6.50;;;4.60;99.90;;;;;;5046713;29;20093;-76
2023/01/25 03:55:15;;;;;;;6.75;6.03;;;4.20;99.90;;;;;;5046952;29;20051;-76
2023/01/25 03:57:47;;;;;;;7.90;6.40;;;4.40;99.90;;;;;;5031428;29;20029;-76
2023/01/25 04:00:19;;;;;;;8.52;6.43;;;4.20;99.90;;;;;;5027733;29;20576;-72
2023/01/25 04:02:50;;;;;;;6.47;5.80;;;4.20;99.90;;;;;;5027628;29;20040;-75
2023/01/25 04:05:21;;;;;;;11.02;7.90;;;4.60;99.90;;;;;;5027765;29;20369;-75
2023/01/25 04:07:52;;;;;;;7.53;6.18;;;4.20;99.90;;;;;;5028108;29;20026;-76
2023/01/25 04:10:22;;;;;;;6.95;6.43;;;4.40;99.90;;;;;;5027786;29;20033;-75
2023/01/25 04:12:57;;;;;;;7.55;6.78;;;4.30;99.90;;;;;;5027776;29;20032;-75
2023/01/25 04:15:27;;;;;;;7.35;6.63;;;4.50;99.90;;;;;;5027549;29;20032;-72
2023/01/25 04:17:58;;;;;;;7.80;6.18;;;4.80;99.90;;;;;;5027644;29;20030;-76
2023/01/25 04:20:29;;;;;;;8.32;6.60;;;4.40;99.90;;;;;;5027408;29;20061;-75
2023/01/25 04:23:00;;;;;;;6.72;6.22;;;4.60;99.90;;;;;;5027756;29;20108;-73
2023/01/25 04:25:31;;;;;;;6.57;5.90;;;4.20;99.90;;;;;;5041841;29;20486;-75
2023/01/25 04:28:02;;;;;;;17.67;10.10;;;4.60;99.90;;;;;;5027507;29;20538;-76
2023/01/25 04:30:33;;;;;;;10.15;7.78;;;4.40;99.90;;;;;;5027225;29;20064;-75
2023/01/25 04:33:05;;;;;;;7.05;6.45;;;4.40;99.90;;;;;;5027386;29;20029;-74
2023/01/25 04:35:36;;;;;;;7.18;5.57;;;4.40;99.90;;;;;;5027301;29;20029;-75
2023/01/25 04:38:09;;;;;;;10.13;7.10;;;4.20;99.90;;;;;;5027497;29;20113;-74
2023/01/25 04:40:40;;;;;;;8.82;6.65;;;4.30;99.90;;;;;;5027320;29;20049;-72
2023/01/25 04:43:13;;;;;;;8.55;6.90;;;4.20;99.90;;;;;;5027384;29;20049;-75
2023/01/25 04:45:44;;;;;;;10.10;6.75;;;4.30;99.90;;;;;;5027314;29;20034;-75
2023/01/25 04:48:15;;;;;;;8.23;6.20;;;4.30;99.90;;;;;;5043996;29;20041;-75
2023/01/25 04:50:46;;;;;;;10.18;7.00;;;4.60;99.90;;;;;;5030743;29;20064;-75
2023/01/25 04:53:17;;;;;;;7.45;6.57;;;4.70;99.90;;;;;;5030793;29;20029;-75
2023/01/25 04:55:48;;;;;;;10.18;7.03;;;4.30;99.90;;;;;;5030863;29;20026;-76
2023/01/25 04:58:19;;;;;;;11.38;6.65;;;4.60;99.90;;;;;;5045057;29;20048;-75
2023/01/25 05:00:49;;;;;;;11.25;6.72;;;4.20;99.90;;;;;;5044815;29;20025;-75
2023/01/25 05:03:21;;;;;;;11.65;7.32;;;4.30;99.90;;;;;;5030751;29;20029;-74
2023/01/25 05:05:52;;;;;;;9.00;6.80;;;4.30;99.90;;;;;;5045050;29;20025;-74
2023/01/25 05:08:24;;;;;;;9.10;7.38;;;4.20;99.90;;;;;;5030621;29;20032;-76
2023/01/25 05:10:55;;;;;;;13.13;7.40;;;4.20;99.90;;;;;;5030879;29;20073;-75
2023/01/25 05:13:26;;;;;;;9.05;7.78;;;3.80;99.90;;;;;;5044995;29;20056;-75
2023/01/25 05:15:57;;;;;;;12.15;8.02;;;4.00;99.90;;;;;;5030599;29;20069;-75
2023/01/25 05:18:28;;;;;;;11.25;8.13;;;4.20;99.90;;;;;;5030442;29;20045;-75
2023/01/25 05:20:58;;;;;;;9.77;7.85;;;3.90;99.90;;;;;;5030092;29;20073;-73
2023/01/25 05:23:29;;;;;;;9.57;8.68;;;4.00;99.90;;;;;;5029471;29;20038;-75
2023/01/25 05:28:49;;;;;;;9.57;7.57;;;4.10;99.90;;;;;;5030247;29;20101;-75
2023/01/25 05:31:20;;;;;;;10.57;8.18;;;3.90;99.90;;;;;;5029144;29;20057;-74
2023/01/25 05:33:51;;;;;;;9.20;7.55;;;3.60;99.90;;;;;;5030170;29;20554;-74
2023/01/25 05:36:22;;;;;;;11.07;7.95;;;4.20;99.90;;;;;;5029797;29;20037;-73
2023/01/25 05:38:52;;;;;;;10.75;7.55;;;3.90;99.90;;;;;;5029863;29;20021;-71
2023/01/25 05:41:23;;;;;;;13.85;8.45;;;3.90;99.90;;;;;;5029609;29;20029;-70
2023/01/25 05:43:54;;;;;;;9.73;7.72;;;3.80;99.90;;;;;;5029818;29;20018;-70
2023/01/25 05:46:28;;;;;;;11.70;8.02;;;3.90;99.90;;;;;;5029852;29;20068;-74
2023/01/25 05:48:59;;;;;;;11.90;8.15;;;4.10;99.90;;;;;;5029672;29;20037;-70
2023/01/25 05:51:30;;;;;;;11.25;9.45;;;3.70;99.90;;;;;;5029911;29;20056;-75
2023/01/25 05:54:02;;;;;;;12.02;8.57;;;3.70;99.90;;;;;;5030026;29;20100;-78
2023/01/25 05:56:33;;;;;;;12.48;9.32;;;3.90;99.90;;;;;;5029586;29;20116;-69
2023/01/25 05:59:04;;;;;;;11.10;6.80;;;4.00;99.90;;;;;;5029190;29;20026;-78
2023/01/25 06:01:35;;;;;;;8.45;7.30;;;3.70;99.90;;;;;;5029662;29;20044;-68
2023/01/25 06:04:06;;;;;;;7.50;6.68;;;4.20;99.90;;;;;;5029322;29;20017;-74
2023/01/25 06:06:36;;;;;;;8.02;6.22;;;3.60;99.90;;;;;;5029432;29;20033;-76
2023/01/25 06:09:10;;;;;;;13.05;8.45;;;3.30;99.90;;;;;;5029061;29;20554;-75
2023/01/25 06:11:45;;;;;;;11.32;9.30;;;3.70;99.90;;;;;;5028089;29;20038;-72
2023/01/25 06:14:16;;;;;;;10.70;9.65;;;3.40;99.90;;;;;;5029377;29;20109;-68
2023/01/25 06:16:46;;;;;;;12.10;9.23;;;3.70;99.90;;;;;;5029495;29;20538;-69
2023/01/25 06:19:17;;;;;;;10.07;8.90;;;3.50;99.90;;;;;;5029168;29;20050;-68
2023/01/25 06:21:49;;;;;;;9.93;8.95;;;3.30;99.90;;;;;;5027856;29;20049;-68
2023/01/25 06:24:20;;;;;;;9.32;8.15;;;3.90;99.90;;;;;;5029157;29;20038;-69
2023/01/25 06:26:51;;;;;;;10.15;8.63;;;3.90;99.90;;;;;;5029399;29;20371;-68
2023/01/25 06:29:22;;;;;;;9.63;8.65;;;3.90;99.90;;;;;;5029311;29;20510;-68
2023/01/25 06:31:54;;;;;;;10.75;8.23;;;4.00;99.90;;;;;;5029152;29;20030;-68
2023/01/25 06:34:25;;;;;;;13.57;7.93;;;4.00;99.90;;;;;;5029160;29;20437;-74
2023/01/25 06:36:56;;;;;;;13.40;8.80;;;3.80;99.90;;;;;;5028365;29;20069;-74
2023/01/25 06:39:28;;;;;;;9.43;8.15;;;3.70;99.90;;;;;;5028138;29;20030;-74
2023/01/25 06:41:59;;;;;;;9.00;8.10;;;3.60;99.90;;;;;;5028800;29;20037;-74
2023/01/25 06:44:30;;;;;;;9.27;7.85;;;4.00;99.90;;;;;;5028207;29;20036;-74
2023/01/25 06:47:01;;;;;;;10.48;8.82;;;3.50;99.90;;;;;;5028684;29;20029;-68
2023/01/25 06:49:32;;;;;;;10.20;7.93;;;3.90;99.90;;;;;;5028248;29;20045;-74
2023/01/25 06:52:02;;;;;;;13.57;6.70;;;3.60;99.90;;;;;;5028258;29;20546;-74
2023/01/25 06:54:33;;;;;;;9.02;8.23;;;3.80;99.90;;;;;;5028367;29;20034;-73
2023/01/25 06:57:04;;;;;;;11.18;8.13;;;3.50;99.90;;;;;;5028696;29;20036;-72
2023/01/25 06:59:35;;;;;;;10.02;8.13;;;3.70;99.90;;;;;;5028755;29;20029;-74
2023/01/25 07:02:06;;;;;;;12.98;8.40;;;3.80;99.90;;;;;;5028564;29;20038;-74
2023/01/25 07:04:37;;;;;;;11.13;8.90;;;3.50;99.90;;;;;;5028345;29;20440;-74
2023/01/25 07:07:08;;;;;;;9.85;8.05;;;3.60;99.90;;;;;;5028595;29;20025;-74
2023/01/25 07:09:39;;;;;;;11.60;8.90;;;3.40;99.90;;;;;;5027584;29;20113;-74
2023/01/25 07:12:10;;;;;;;13.07;8.32;;;3.40;99.90;;;;;;5028377;29;20474;-74
2023/01/25 07:14:40;;;;;;;8.90;8.00;;;3.60;99.90;;;;;;5028275;29;20390;-74
2023/01/25 07:17:12;;;;;;;10.43;9.30;;;3.80;99.90;;;;;;5028507;29;20025;-74
2023/01/25 07:19:43;;;;;;;19.77;9.07;;;3.70;99.90;;;;;;5027896;29;20057;-73
2023/01/25 07:22:14;;;;;;;10.05;8.52;;;3.80;99.90;;;;;;5028346;29;20386;-74
2023/01/25 07:24:48;;;;;;;11.00;8.52;;;3.60;99.90;;;;;;5028039;29;20026;-74
2023/01/25 07:27:19;;;;;;;10.07;8.68;;;3.40;99.90;;;;;;5028192;29;20026;-74
2023/01/25 07:29:51;;;;;;;8.85;7.65;;;3.70;99.90;;;;;;5027851;29;20041;-74
2023/01/25 07:32:21;;;;;;;9.07;7.18;;;3.90;99.90;;;;;;5028141;29;20165;-74
2023/01/25 07:34:52;;;;;;;9.88;7.97;;;4.30;99.90;;;;;;5028056;29;20108;-74
2023/01/25 07:37:24;;;;;;;9.40;8.48;;;3.70;99.90;;;;;;5027974;29;20113;-75
2023/01/25 07:39:57;;;;;;;10.20;8.82;;;3.60;99.90;;;;;;5027965;29;20026;-74
2023/01/25 07:42:27;;;;;;;9.75;7.93;;;3.70;99.90;;;;;;5028195;29;20025;-73
2023/01/25 07:44:58;;;;;;;10.52;8.55;;;4.10;99.90;;;;;;5028044;29;20367;-73
2023/01/25 07:47:29;;;;;;;10.07;7.90;;;4.00;99.90;;;;;;5028172;29;20108;-72
2023/01/25 07:50:00;;;;;;;10.30;8.15;;;4.00;99.90;;;;;;5027709;29;20052;-73
2023/01/25 07:52:31;;;;;;;11.20;7.95;;;4.10;99.90;;;;;;5028101;29;20052;-74
2023/01/25 07:55:02;;;;;;;8.85;6.88;;;4.00;99.90;;;;;;5028005;29;20494;-75
2023/01/25 07:57:33;;;;;;;10.35;7.82;;;4.00;99.90;;;;;;5027908;29;20501;-75
2023/01/25 08:00:09;;;;;;;12.60;7.85;;;4.10;99.90;;;;;;5027789;29;20041;-74
2023/01/25 08:02:40;;;;;;;10.85;7.38;;;4.20;99.90;;;;;;5027649;29;20132;-74
2023/01/25 08:05:11;;;;;;;8.63;7.82;;;4.10;99.90;;;;;;5027613;29;20104;-74
2023/01/25 08:07:42;;;;;;;9.70;8.38;;;4.10;99.90;;;;;;5027812;29;20030;-75
2023/01/25 08:10:13;;;;;;;11.23;7.53;;;4.10;99.90;;;;;;5027560;29;20493;-74
2023/01/25 08:12:45;;;;;;;10.02;6.72;;;4.00;99.90;;;;;;5027708;29;20112;-74
2023/01/25 08:15:16;;;;;;;11.75;6.97;;;4.40;99.90;;;;;;5041913;29;20037;-68
2023/01/25 08:17:46;;;;;;;9.18;7.30;;;4.30;99.90;;;;;;5027730;29;20025;-73
2023/01/25 08:20:18;;;;;;;11.55;8.57;;;4.30;99.90;;;;;;5027307;29;20065;-74
2023/01/25 08:22:50;;;;;;;9.82;8.07;;;4.40;99.90;;;;;;5031109;29;20037;-74
2023/01/25 08:25:21;;;;;;;13.50;7.90;;;4.70;99.90;;;;;;5031188;29;20030;-74
2023/01/25 08:27:52;;;;;;;10.80;8.10;;;4.40;99.90;;;;;;5031372;29;20104;-74
2023/01/25 08:30:23;;;;;;;13.30;8.82;;;4.30;99.90;;;;;;5045667;29;20072;-74
2023/01/25 08:32:54;;;;;;;10.55;8.35;;;4.50;99.90;;;;;;5031134;29;20065;-74
2023/01/25 08:35:25;;;;;;;9.90;7.07;;;4.50;99.90;;;;;;5031223;29;20495;-74
2023/01/25 08:37:56;;;;;;;9.48;7.95;;;4.50;99.90;;;;;;5031086;29;20036;-74
2023/01/25 08:40:26;;;;;;;9.63;7.25;;;4.20;99.90;;;;;;5031192;29;20049;-74
2023/01/25 08:42:57;;;;;;;13.95;8.60;;;4.60;99.90;;;;;;5031247;29;20034;-74
2023/01/25 08:45:33;;;;;;;9.77;8.43;;;4.60;99.90;;;;;;5031012;29;20364;-69
2023/01/25 08:48:04;;;;;;;9.50;7.53;;;4.30;99.90;;;;;;5031038;29;20029;-74
2023/01/25 08:50:35;;;;;;;10.18;7.65;;;4.60;99.90;;;;;;5030854;29;20045;-74
2023/01/25 08:53:05;;;;;;;10.52;7.75;;;4.60;99.90;;;;;;5030992;29;20047;-74
2023/01/25 08:55:36;;;;;;;12.13;7.07;;;4.40;99.90;;;;;;5030975;29;20120;-74
2023/01/25 08:58:12;;;;;;;11.50;6.70;;;4.70;99.90;;;;;;5030925;29;20021;-74
2023/01/25 09:00:43;;;;;;;10.85;7.88;;;4.90;99.90;;;;;;5030911;29;20033;-74
2023/01/25 09:03:16;;;;;;;9.65;7.93;;;4.90;99.90;;;;;;5030787;29;20112;-73
2023/01/25 09:05:47;;;;;;;8.90;7.85;;;5.20;99.90;;;;;;5030669;29;20031;-74
2023/01/25 09:08:18;;;;;;;8.77;6.95;;;4.60;99.90;;;;;;5030714;29;20029;-69
2023/01/25 09:10:49;;;;;;;10.32;7.43;;;4.80;99.90;;;;;;5030829;29;20061;-72
2023/01/25 09:13:20;;;;;;;10.18;7.38;;;4.90;99.90;;;;;;5030669;29;20037;-75
2023/01/25 09:15:50;;;;;;;11.25;8.55;;;5.00;99.90;;;;;;5030496;29;20150;-74
2023/01/25 09:18:21;;;;;;;14.07;10.25;;;5.60;99.90;;;;;;5030375;29;20057;-75
2023/01/25 09:20:52;;;;;;;12.18;9.30;;;4.80;99.90;;;;;;5044522;29;20054;-74
2023/01/25 09:23:23;;;;;;;9.65;7.45;;;5.20;99.90;;;;;;5030386;29;20061;-74
2023/01/25 09:26:00;;;;;;;15.75;9.30;;;5.40;99.90;;;;;;5044412;29;20498;-74
2023/01/25 09:28:33;;;;;;;13.70;9.15;;;5.20;99.90;;;;;;5030161;29;20029;-75
2023/01/25 09:31:05;;;;;;;11.90;9.07;;;5.30;99.90;;;;;;5030168;29;20129;-74
2023/01/25 09:33:38;;;;;;;10.45;9.00;;;5.50;99.90;;;;;;5029253;29;20375;-74
2023/01/25 09:36:09;;;;;;;20.02;18.27;;;6.10;99.90;;;;;;5030162;29;20041;-75
2023/01/25 09:38:40;;;;;;;19.33;17.63;;;6.10;99.90;;;;;;5030072;29;20030;-74
2023/01/25 09:41:17;;;;;;;21.13;19.33;;;5.30;99.90;;;;;;5030015;29;20033;-74
2023/01/25 09:44:15;;;;;;;14.55;13.27;;;5.80;99.90;;;;;;5030042;29;20029;-75
2023/01/25 09:46:54;;;;;;;16.98;14.73;;;5.80;99.90;;;;;;5030045;29;20089;-75
2023/01/25 09:49:36;;;;;;;14.75;13.43;;;6.60;99.90;;;;;;5029776;29;20057;-74
2023/01/25 09:52:31;;;;;;;11.20;9.90;;;6.70;99.90;;;;;;5029941;29;20041;-75
2023/01/25 09:55:02;;;;;;;20.80;18.75;;;7.10;99.90;;;;;;5030248;29;20033;-75
2023/01/25 09:57:36;;;;;;;19.75;17.90;;;6.70;99.90;;;;;;5029963;29;20390;-75
2023/01/25 10:00:19;;;;;;;13.38;12.02;;;6.60;99.90;;;;;;5029707;29;20026;-74
2023/01/25 10:03:16;;;;;;;10.52;6.78;;;7.00;99.90;;;;;;5029793;29;20041;-74
2023/01/25 10:05:52;;;;;;;8.60;5.70;;;6.60;99.90;;;;;;5028531;29;20436;-74
2023/01/25 10:08:31;;;;;;;8.63;5.97;;;6.40;99.90;;;;;;5029527;29;20018;-74
2023/01/25 10:11:23;;;;;;;7.68;5.57;;;6.10;99.90;;;;;;5043817;29;20038;-74
2023/01/25 10:13:55;;;;;;;12.75;10.90;;;5.70;99.90;;;;;;5029462;29;20029;-74
2023/01/25 10:16:39;;;;;;;10.10;6.20;;;6.30;99.90;;;;;;5029364;29;20041;-74
2023/01/25 10:19:33;;;;;;;7.78;5.53;;;6.80;99.90;;;;;;5029094;29;20061;-74
2023/01/25 10:22:16;;;;;;;8.80;7.28;;;6.80;99.90;;;;;;5029423;29;20376;-74
2023/01/25 10:25:18;;;;;;;9.40;6.63;;;7.10;99.90;;;;;;5027999;29;20073;-75
2023/01/25 10:28:14;;;;;;;10.00;6.10;;;6.70;99.90;;;;;;5043606;29;20439;-74
2023/01/25 10:30:57;;;;;;;10.10;7.85;;;6.00;99.90;;;;;;5029265;29;20145;-75
2023/01/25 10:33:30;;;;;;;11.85;10.57;;;6.60;99.90;;;;;;5029207;29;20041;-74
2023/01/25 10:36:03;;;;;;;8.82;5.18;;;6.00;99.90;;;;;;5029042;29;20025;-74
2023/01/25 10:38:41;;;;;;;11.98;9.20;;;6.70;99.90;;;;;;5029031;29;20037;-74
2023/01/25 10:41:27;;;;;;;9.93;8.50;;;6.10;99.90;;;;;;5028916;29;20495;-74
2023/01/25 10:47:13;;;;;;;7.82;6.50;;;6.30;99.90;;;;;;5029027;29;20048;-75
2023/01/25 10:49:51;;;;;;;14.98;13.48;;;6.30;99.90;;;;;;5028602;29;20065;-74
2023/01/25 10:52:25;;;;;;;9.50;5.35;;;6.60;99.90;;;;;;5028804;29;20112;-75
2023/01/25 10:55:17;;;;;;;8.25;5.63;;;6.70;99.90;;;;;;5028767;29;20037;-74
2023/01/25 10:57:50;;;;;;;7.72;6.28;;;6.40;99.90;;;;;;5043326;29;20076;-75
2023/01/25 11:00:26;;;;;;;9.70;5.63;;;6.70;99.90;;;;;;5028825;29;20033;-75
2023/01/25 11:02:57;;;;;;;7.65;5.75;;;6.40;99.90;;;;;;5028636;29;20033;-74
2023/01/25 11:05:38;;;;;;;8.07;6.82;;;6.60;99.90;;;;;;5028443;29;20032;-75
2023/01/25 11:08:23;;;;;;;6.28;5.55;;;6.40;99.90;;;;;;5028598;29;20029;-74
2023/01/25 11:10:54;;;;;;;9.27;6.43;;;6.90;99.90;;;;;;5028585;29;20041;-74
2023/01/25 11:13:28;;;;;;;7.97;6.93;;;7.30;99.90;;;;;;5042843;29;20025;-74
2023/01/25 11:16:03;;;;;;;6.32;5.53;;;7.40;99.90;;;;;;5028402;29;20032;-75
2023/01/25 11:18:34;;;;;;;7.30;6.30;;;7.00;99.90;;;;;;5028299;29;20124;-74
2023/01/25 11:21:11;;;;;;;6.93;5.55;;;6.80;99.90;;;;;;5028124;29;20205;-74
2023/01/25 11:23:42;;;;;;;8.00;6.07;;;6.20;99.90;;;;;;5028323;29;20025;-75
2023/01/25 11:26:17;;;;;;;8.95;6.50;;;6.50;99.90;;;;;;5042442;29;20036;-73
2023/01/25 11:28:48;;;;;;;10.82;7.72;;;6.70;99.90;;;;;;5027946;29;20041;-75
2023/01/25 11:31:20;;;;;;;9.73;8.18;;;5.90;99.90;;;;;;5028219;29;20045;-74
2023/01/25 11:33:51;;;;;;;9.35;7.78;;;6.20;99.90;;;;;;5028086;29;20024;-73
2023/01/25 11:36:50;;;;;;;7.78;6.57;;;6.30;99.90;;;;;;5027956;29;20471;-74
2023/01/25 11:39:44;;;;;;;10.70;8.75;;;6.50;99.90;;;;;;5028227;29;20060;-75
2023/01/25 11:42:20;;;;;;;11.07;8.85;;;6.60;99.90;;;;;;5028008;29;20033;-75
2023/01/25 11:45:31;;;;;;;9.40;6.50;;;7.20;99.90;;;;;;5027867;29;20037;-74
2023/01/25 11:48:15;;;;;;;10.38;6.45;;;6.60;99.90;;;;;;5027828;29;20468;-73
2023/01/25 11:51:22;;;;;;;9.85;7.25;;;6.80;99.90;;;;;;5027715;29;20052;-75
2023/01/25 11:54:13;;;;;;;9.88;6.93;;;7.00;99.90;;;;;;5027865;29;20037;-75
2023/01/25 11:57:05;;;;;;;8.35;6.25;;;7.20;99.90;;;;;;5027388;29;20029;-73
2023/01/25 11:59:52;;;;;;;8.90;6.97;;;6.70;99.90;;;;;;5027761;29;20034;-74
2023/01/25 12:02:47;;;;;;;6.55;5.55;;;7.10;99.90;;;;;;5027745;29;20037;-75
2023/01/25 12:05:45;;;;;;;7.43;5.88;;;7.20;99.90;;;;;;5027668;29;20030;-75
2023/01/25 12:08:36;;;;;;;8.52;6.55;;;7.30;99.90;;;;;;5027770;29;20030;-75
2023/01/25 12:11:33;;;;;;;9.15;6.90;;;7.80;99.90;;;;;;5027784;29;20045;-75
2023/01/25 12:14:40;;;;;;;10.35;6.85;;;8.10;99.90;;;;;;5027765;29;20037;-71
2023/01/25 12:17:22;;;;;;;9.93;8.75;;;6.80;99.90;;;;;;5026878;29;20038;-69
2023/01/25 12:20:05;;;;;;;11.60;7.07;;;7.70;99.90;;;;;;5025915;29;20046;-68
2023/01/25 12:23:00;;;;;;;8.85;7.18;;;8.30;99.90;;;;;;5007875;29;20034;-68
2023/01/25 12:26:09;;;;;;;8.98;6.03;;;6.60;99.90;;;;;;5008329;29;20034;-72
2023/01/25 12:28:49;;;;;;;7.35;5.80;;;7.10;99.90;;;;;;5007856;29;20080;-75
2023/01/25 12:31:29;;;;;;;13.57;9.93;;;6.80;99.90;;;;;;5025705;29;20102;-68
2023/01/25 12:34:07;;;;;;;11.70;6.25;;;6.80;99.90;;;;;;5040245;29;20024;-75
2023/01/25 12:36:43;;;;;;;7.93;6.40;;;6.60;99.90;;;;;;5046660;29;20053;-68
2023/01/25 12:39:17;;;;;;;7.93;6.38;;;7.40;99.90;;;;;;5061053;29;20033;-74
2023/01/25 12:42:04;;;;;;;9.77;7.05;;;7.90;99.90;;;;;;5046639;29;20036;-68
2023/01/25 12:44:56;;;;;;;8.02;5.88;;;7.80;99.90;;;;;;5046522;29;20025;-75
2023/01/25 12:47:42;;;;;;;10.55;7.28;;;7.10;99.90;;;;;;5046480;29;20060;-69
2023/01/25 12:50:22;;;;;;;9.48;7.10;;;6.50;99.90;;;;;;5046438;29;20049;-77
2023/01/25 12:53:00;;;;;;;13.40;7.85;;;7.60;99.90;;;;;;5060854;29;20485;-69
2023/01/25 12:55:32;;;;;;;8.75;6.85;;;6.70;99.90;;;;;;5046464;29;20363;-68
2023/01/25 12:58:18;;;;;;;8.85;6.85;;;7.00;99.90;;;;;;5046350;29;20419;-75
2023/01/25 13:01:07;;;;;;;11.98;6.57;;;7.20;99.90;;;;;;5046587;29;20037;-73
2023/01/25 13:04:03;;;;;;;20.00;18.33;;;6.30;99.90;;;;;;5046319;29;20401;-69
2023/01/25 13:06:49;;;;;;;16.60;15.00;;;7.10;99.90;;;;;;5046368;29;20028;-77
2023/01/25 13:09:32;;;;;;;22.77;21.08;;;6.90;99.90;;;;;;5048996;29;20037;-67
2023/01/25 13:12:03;;;;;;;18.48;16.83;;;6.30;99.90;;;;;;5049933;29;20084;-79
2023/01/25 13:14:37;;;;;;;21.42;19.48;;;6.00;99.90;;;;;;5050142;29;20044;-72
2023/01/25 13:17:21;;;;;;;45.65;31.50;;;5.90;99.90;;;;;;5049930;29;20029;-67
2023/01/25 13:19:52;;;;;;;26.67;24.30;;;6.40;99.90;;;;;;5049278;29;20100;-67
2023/01/25 13:22:45;;;;;;;42.35;35.92;;;6.20;99.90;;;;;;5033397;29;20042;-79
2023/01/25 13:25:16;;;;;;;17.05;13.73;;;7.30;99.90;;;;;;5029803;29;20082;-76
2023/01/25 13:27:47;;;;;;;18.92;16.25;;;6.80;99.90;;;;;;5030241;29;20033;-74
2023/01/25 13:30:32;;;;;;;32.03;23.35;;;7.10;99.90;;;;;;5030141;29;20049;-67
2023/01/25 13:33:05;;;;;;;21.63;17.70;;;7.10;99.90;;;;;;5030014;29;20029;-72
2023/01/25 13:35:39;;;;;;;16.65;13.63;;;6.60;99.90;;;;;;5029728;29;20025;-77
2023/01/25 13:38:34;;;;;;;15.15;13.45;;;6.30;99.90;;;;;;5029843;29;20037;-73